Flight Track Log - Related Links

Times and Time Zones

All times are in EDT time to prevent confusion due to time zone crossing. See the BER6771 flight status page for this flight to view local times or setup timezone preferences in your user account.

Time Position Orientation Groundspeed Altitude Reporting Facility
EDT Latitude Longitude Course Direction KTS MPH feet Rate Location/Type
Sat 01:18:00 AM 50.3547 9.1053 305° West  Level Estimated
Sat 01:19:00 AM 50.3947 9.0096 303° West  Level Estimated
Sat 01:20:00 AM 50.4345 8.9137 303° West  Level Estimated
Sat 01:21:00 AM 50.4743 8.8177 303° West  Level Estimated
Sat 01:22:00 AM 50.5139 8.7215 303° West  Level Estimated
Sat 01:23:00 AM 50.5536 8.6252 303° West  Level Estimated
Sat 01:24:00 AM 50.5931 8.5287 303° West  Level Estimated
Sat 01:25:00 AM 50.6325 8.4320 303° West  Level Estimated
Sat 01:26:00 AM 50.6719 8.3352 303° West  Level Estimated
Sat 01:27:00 AM 50.7112 8.2382 303° West  Level Estimated
Sat 01:28:00 AM 50.7504 8.1410 303° West  Level Estimated
Sat 01:29:00 AM 50.7895 8.0437 302° West  Level Estimated
Sat 01:30:00 AM 50.8285 7.9462 302° West  Level Estimated
Sat 01:31:00 AM 50.8675 7.8485 302° West  Level Estimated
Sat 01:32:00 AM 50.9064 7.7507 302° West  Level Estimated
Sat 01:33:00 AM 50.9452 7.6528 302° West  Level Estimated
Sat 01:34:00 AM 50.9839 7.5546 302° West  Level Estimated
Sat 01:35:00 AM 51.0225 7.4563 302° West  Level Estimated
Sat 01:36:00 AM 51.0611 7.3579 302° West  Level Estimated
Sat 01:37:00 AM 51.0996 7.2592 302° West  Level Estimated
Sat 01:38:00 AM 51.1380 7.1604 302° West  Level Estimated
Sat 01:39:00 AM 51.1763 7.0615 302° West  Level Estimated
Sat 01:40:00 AM 51.2145 6.9624 302° West  Level Estimated
Sat 01:41:00 AM 51.2526 6.8631 302° West  Level Estimated
Sat 01:42:00 AM 51.2895 6.7668 301° West  Level Estimated
Sat 01:43:00 AM 51.2895 6.7668 314° West  Level Estimated
Sat 01:44:00 AM 51.2895 6.7668 46° Northeast  Level Estimated
Sat 01:45:00 AM 51.2895 6.7668 314° West  Level Estimated
Sat 01:46:00 AM 51.2895 6.7668 46° Northeast  Level Estimated
Sat 01:47:00 AM 51.2895 6.7668 314° West  Level Estimated
Sat 01:48:00 AM 51.2895 6.7668 46° Northeast  Level Estimated
Sat 01:49:00 AM 51.2895 6.7668 314° West  Level Estimated
Sat 01:50:00 AM 51.2895 6.7668 46° Northeast  Level Estimated
Sat 01:51:00 AM 51.2895 6.7668 314° West  Level Estimated
Sat 01:52:00 AM 51.2895 6.7668 46° Northeast  Level Estimated
Sat 01:53:00 AM 51.2895 6.7668 314° West  Level Estimated
Sat 01:54:00 AM 51.2895 6.7668 46° Northeast  Level Estimated
Sat 01:55:00 AM 51.2895 6.7668 314° West  Level Estimated
Sat 01:56:00 AM 51.2895 6.7668 46° Northeast  Level Estimated
Sat 01:57:00 AM 51.2895 6.7668 314° West  Level Estimated
Sat 01:58:00 AM 51.2895 6.7668 46° Northeast  Level Estimated

Login

Don't have an account? Register now (free) for customized features, flight alerts, and more!